createdAt,value
2023-01-19T00:00:10.169Z,97372.13
2023-01-19T00:01:11.375Z,97371.59
2023-01-19T00:02:12.571Z,97368.47
2023-01-19T00:03:13.802Z,97373.13
2023-01-19T00:04:15.014Z,97371.56
2023-01-19T00:05:16.408Z,97371.81
2023-01-19T00:06:18.048Z,97368.47
2023-01-19T00:07:19.302Z,97371.06
2023-01-19T00:08:20.617Z,97369.75
2023-01-19T00:09:21.952Z,97380.16
2023-01-19T00:10:23.344Z,97379.66
2023-01-19T00:11:24.604Z,97373.13
2023-01-19T00:12:26.152Z,97373.41
2023-01-19T00:13:27.485Z,97384.06
2023-01-19T00:14:28.741Z,97371.84
2023-01-19T00:15:29.962Z,97377.56
2023-01-19T00:16:31.245Z,97375.19
2023-01-19T00:17:32.532Z,97377.28
2023-01-19T00:18:33.781Z,97381.44
2023-01-19T00:19:34.971Z,97382.97
2023-01-19T00:20:36.325Z,97384.25
2023-01-19T00:21:37.551Z,97383.75
2023-01-19T00:22:38.741Z,97382.97
2023-01-19T00:23:40.296Z,97377.75
2023-01-19T00:24:41.501Z,97383.97
2023-01-19T00:25:42.906Z,97383.19
2023-01-19T00:26:44.269Z,97378.22
2023-01-19T00:27:45.509Z,97386.28
2023-01-19T00:28:46.773Z,97385.25
2023-01-19T00:29:47.995Z,97382.34
2023-01-19T00:30:50.038Z,97380.31
2023-01-19T00:31:51.322Z,97384.72
2023-01-19T00:32:52.543Z,97383.41
2023-01-19T00:33:53.794Z,97381.88
2023-01-19T00:34:55.071Z,97380.03
2023-01-19T00:35:56.297Z,97388.09
2023-01-19T00:36:57.549Z,97380.53
2023-01-19T00:37:59.383Z,97382.91
2023-01-19T00:39:01.043Z,97387.31
2023-01-19T00:40:02.315Z,97381.56
2023-01-19T00:41:03.609Z,97383.91
2023-01-19T00:42:04.877Z,97379.72
2023-01-19T00:43:06.145Z,97384.44
2023-01-19T00:44:07.357Z,97385.47
2023-01-19T00:45:09.411Z,97386.50
2023-01-19T00:46:10.822Z,97387.31
2023-01-19T00:47:12.066Z,97390.16
2023-01-19T00:48:13.261Z,97392.22
2023-01-19T00:49:14.480Z,97385.50
2023-01-19T00:50:16.462Z,97388.59
2023-01-19T00:51:17.728Z,97387.53
2023-01-19T00:52:19.006Z,97390.19
2023-01-19T00:53:20.256Z,97386.28
2023-01-19T00:54:21.467Z,97381.59
2023-01-19T00:55:23.127Z,97387.53
2023-01-19T00:56:24.406Z,97378.97
2023-01-19T00:57:25.734Z,97376.59
2023-01-19T00:58:26.966Z,97384.41
2023-01-19T00:59:28.192Z,97394.25
2023-01-19T01:00:29.502Z,97387.00
2023-01-19T01:01:45.567Z,97392.22
2023-01-19T01:02:49.684Z,97376.88
2023-01-19T01:03:50.913Z,97384.94
2023-01-19T01:04:52.207Z,97389.38
2023-01-19T01:05:53.441Z,97389.91
2023-01-19T01:06:54.695Z,97389.13
2023-01-19T01:07:55.902Z,97389.38
2023-01-19T01:08:57.092Z,97386.50
2023-01-19T01:09:58.297Z,97386.50
2023-01-19T01:10:59.715Z,97387.28
2023-01-19T01:12:00.982Z,97382.59
2023-01-19T01:13:20.538Z,97388.56
2023-01-19T01:14:23.501Z,97388.03
2023-01-19T01:15:25.504Z,97388.25
2023-01-19T01:16:26.768Z,97390.84
2023-01-19T01:17:28.036Z,97390.34
2023-01-19T01:18:29.332Z,97385.13
2023-01-19T01:19:30.898Z,97386.19
2023-01-19T01:20:32.124Z,97385.91
2023-01-19T01:21:33.392Z,97389.56
2023-01-19T01:22:34.639Z,97395.00
2023-01-19T01:23:35.857Z,97386.41
2023-01-19T01:24:37.074Z,97387.44
2023-01-19T01:25:38.309Z,97390.81
2023-01-19T01:26:39.584Z,97393.94
2023-01-19T01:27:41.169Z,97392.38
2023-01-19T01:28:42.419Z,97395.97
2023-01-19T01:29:43.634Z,97395.19
2023-01-19T01:30:44.879Z,97391.81
2023-01-19T01:31:46.216Z,97397.28
2023-01-19T01:32:47.819Z,97395.97
2023-01-19T01:33:49.092Z,97396.28
2023-01-19T01:34:50.352Z,97400.16
2023-01-19T01:35:51.577Z,97399.91
2023-01-19T01:36:53.023Z,97400.94
2023-01-19T01:37:57.475Z,97401.75
2023-01-19T01:38:59.363Z,97403.03
2023-01-19T01:40:00.627Z,97400.94
2023-01-19T01:41:01.913Z,97399.59
2023-01-19T01:42:04.020Z,97402.53
2023-01-19T01:43:09.924Z,97401.75
2023-01-19T01:44:30.026Z,97404.59
2023-01-19T01:45:35.754Z,97408.75
2023-01-19T01:46:37.054Z,97404.53
2023-01-19T01:47:42.202Z,97407.19
2023-01-19T01:48:46.446Z,97404.59
2023-01-19T01:49:48.267Z,97399.94
2023-01-19T01:50:51.249Z,97402.53
2023-01-19T01:51:54.413Z,97406.41
2023-01-19T01:53:06.563Z,97407.44
2023-01-19T01:54:11.260Z,97407.16
2023-01-19T01:55:12.957Z,97402.75
2023-01-19T01:56:17.490Z,97408.97
2023-01-19T01:57:18.857Z,97405.34
2023-01-19T01:58:20.583Z,97402.75
2023-01-19T01:59:36.350Z,97405.59
2023-01-19T02:00:37.988Z,97405.84
2023-01-19T02:01:39.603Z,97396.75
2023-01-19T02:02:40.895Z,97409.22
2023-01-19T02:03:42.312Z,97403.53
2023-01-19T02:04:55.250Z,97396.75
2023-01-19T02:05:59.423Z,97406.13
2023-01-19T02:07:00.744Z,97399.91
2023-01-19T02:08:04.975Z,97402.25
2023-01-19T02:09:08.615Z,97403.53
2023-01-19T02:10:10.039Z,97400.16
2023-01-19T02:11:11.381Z,97404.53
2023-01-19T02:12:13.163Z,97410.28
2023-01-19T02:13:14.840Z,97407.16
2023-01-19T02:14:18.505Z,97407.16
2023-01-19T02:15:19.997Z,97398.56
2023-01-19T02:16:21.348Z,97406.63
2023-01-19T02:17:22.840Z,97401.72
2023-01-19T02:18:26.266Z,97398.34
2023-01-19T02:19:30.942Z,97404.81
2023-01-19T02:20:35.309Z,97408.44
2023-01-19T02:21:58.763Z,97404.81
2023-01-19T02:23:01.580Z,97406.13
2023-01-19T02:24:03.263Z,97398.56
2023-01-19T02:25:05.197Z,97413.63
2023-01-19T02:26:08.119Z,97402.47
2023-01-19T02:27:10.249Z,97401.38
2023-01-19T02:28:11.646Z,97403.47
2023-01-19T02:29:14.768Z,97397.72
2023-01-19T02:30:16.251Z,97396.16
2023-01-19T02:31:17.695Z,97396.41
2023-01-19T02:32:19.000Z,97398.75
2023-01-19T02:33:20.279Z,97396.41
2023-01-19T02:34:21.799Z,97398.44
2023-01-19T02:35:23.471Z,97397.94
2023-01-19T02:36:26.795Z,97396.13
2023-01-19T02:37:29.647Z,97398.44
2023-01-19T02:38:31.982Z,97401.84
2023-01-19T02:39:36.255Z,97391.19
2023-01-19T02:40:38.263Z,97394.78
2023-01-19T02:41:42.105Z,97402.81
2023-01-19T02:42:45.490Z,97402.28
2023-01-19T02:43:48.088Z,97407.25
2023-01-19T02:44:51.530Z,97403.31
2023-01-19T02:45:52.815Z,97401.84
2023-01-19T02:46:54.454Z,97396.63
2023-01-19T02:47:55.653Z,97401.34
2023-01-19T02:48:59.877Z,97403.69
2023-01-19T02:50:01.143Z,97407.06
2023-01-19T02:51:08.681Z,97407.03
2023-01-19T02:52:15.730Z,97410.91
2023-01-19T02:53:25.221Z,97409.56
2023-01-19T02:54:44.541Z,97412.19
2023-01-19T02:55:49.418Z,97412.19
2023-01-19T02:56:54.907Z,97411.41
2023-01-19T02:58:03.613Z,97408.31
2023-01-19T02:59:04.826Z,97412.72
2023-01-19T03:00:06.077Z,97411.41
2023-01-19T03:01:13.780Z,97407.75
2023-01-19T03:02:24.413Z,97402.56
2023-01-19T03:03:30.475Z,97402.03
2023-01-19T03:04:34.453Z,97403.84
2023-01-19T03:05:35.629Z,97408.50
2023-01-19T03:06:55.307Z,97410.31
2023-01-19T03:08:05.533Z,97404.38
2023-01-19T03:09:25.610Z,97408.28
2023-01-19T03:10:40.163Z,97407.50
2023-01-19T03:11:44.155Z,97410.41
2023-01-19T03:12:53.043Z,97413.00
2023-01-19T03:14:00.379Z,97413.50
2023-01-19T03:15:09.437Z,97412.19
2023-01-19T03:16:21.161Z,97415.59
2023-01-19T03:17:23.004Z,97415.56
2023-01-19T03:18:29.400Z,97412.19
2023-01-19T03:19:38.995Z,97415.50
2023-01-19T03:20:40.813Z,97406.94
2023-01-19T03:21:45.344Z,97408.50
2023-01-19T03:22:49.188Z,97406.72
2023-01-19T03:23:51.006Z,97409.53
2023-01-19T03:24:54.655Z,97411.59
2023-01-19T03:25:57.274Z,97422.00
2023-01-19T03:27:00.867Z,97412.63
2023-01-19T03:28:03.250Z,97416.78
2023-01-19T03:29:05.851Z,97418.84
2023-01-19T03:30:12.978Z,97414.69
2023-01-19T03:31:16.299Z,97418.31
2023-01-19T03:32:19.725Z,97417.31
2023-01-19T03:33:24.550Z,97410.31
2023-01-19T03:34:26.055Z,97413.41
2023-01-19T03:35:30.439Z,97414.69
2023-01-19T03:36:43.378Z,97412.09
2023-01-19T03:37:46.070Z,97409.75
2023-01-19T03:38:48.792Z,97413.66
2023-01-19T03:39:50.191Z,97413.66
2023-01-19T03:40:56.245Z,97406.38
2023-01-19T03:41:59.681Z,97414.63
2023-01-19T03:43:02.516Z,97415.94
2023-01-19T03:44:04.865Z,97416.16
2023-01-19T03:45:07.103Z,97414.28
2023-01-19T03:46:09.082Z,97421.25
2023-01-19T03:47:11.387Z,97411.38
2023-01-19T03:48:12.678Z,97416.56
2023-01-19T03:49:14.079Z,97419.44
2023-01-19T03:50:21.507Z,97418.34
2023-01-19T03:51:22.837Z,97414.19
2023-01-19T03:52:27.900Z,97416.00
2023-01-19T03:53:29.106Z,97423.53
2023-01-19T03:54:31.023Z,97423.78
2023-01-19T03:55:32.495Z,97422.75
2023-01-19T03:56:33.780Z,97429.22
2023-01-19T03:57:35.287Z,97423.72
2023-01-19T03:58:36.489Z,97428.88
2023-01-19T03:59:37.737Z,97428.34
2023-01-19T04:00:39.483Z,97431.09
2023-01-19T04:01:40.880Z,97428.22
2023-01-19T04:02:42.240Z,97426.38
2023-01-19T04:03:43.797Z,97430.22
2023-01-19T04:04:45.176Z,97428.72
2023-01-19T04:05:46.517Z,97435.16
2023-01-19T04:06:47.796Z,97424.78
2023-01-19T04:07:49.541Z,97429.47
2023-01-19T04:08:51.212Z,97432.31
2023-01-19T04:09:52.424Z,97435.16
2023-01-19T04:10:53.622Z,97436.44
2023-01-19T04:11:54.843Z,97437.22
2023-01-19T04:13:00.281Z,97437.69
2023-01-19T04:14:01.767Z,97433.28
2023-01-19T04:15:03.144Z,97438.47
2023-01-19T04:16:05.278Z,97434.09
2023-01-19T04:17:06.508Z,97435.88
2023-01-19T04:18:08.511Z,97432.03
2023-01-19T04:19:09.738Z,97434.63
2023-01-19T04:20:11.080Z,97442.66
2023-01-19T04:21:12.348Z,97437.75
2023-01-19T04:22:13.638Z,97445.53
2023-01-19T04:23:14.854Z,97439.84
2023-01-19T04:24:16.314Z,97438.81
2023-01-19T04:25:17.615Z,97440.69
2023-01-19T04:26:18.846Z,97450.03
2023-01-19T04:27:20.084Z,97449.81
2023-01-19T04:28:21.370Z,97448.00
2023-01-19T04:29:22.640Z,97444.63
2023-01-19T04:30:24.550Z,97451.63
2023-01-19T04:31:25.764Z,97452.09
2023-01-19T04:32:27.004Z,97444.56
2023-01-19T04:33:28.447Z,97452.09
2023-01-19T04:34:29.685Z,97450.28
2023-01-19T04:35:30.993Z,97449.75
2023-01-19T04:36:32.220Z,97453.63
2023-01-19T04:37:33.460Z,97458.81
2023-01-19T04:38:34.816Z,97450.50
2023-01-19T04:39:36.204Z,97451.28
2023-01-19T04:40:37.396Z,97452.00
2023-01-19T04:41:38.580Z,97454.84
2023-01-19T04:42:43.276Z,97450.13
2023-01-19T04:43:44.527Z,97453.75
2023-01-19T04:44:45.820Z,97451.94
2023-01-19T04:45:47.256Z,97451.38
2023-01-19T04:46:48.647Z,97455.78
2023-01-19T04:47:50.731Z,97450.59
2023-01-19T04:48:51.932Z,97459.16
2023-01-19T04:49:53.175Z,97455.56
2023-01-19T04:50:54.405Z,97458.16
2023-01-19T04:51:55.616Z,97457.38
2023-01-19T04:52:56.970Z,97454.78
2023-01-19T04:53:58.224Z,97458.38
2023-01-19T04:54:59.505Z,97462.25
2023-01-19T04:56:00.747Z,97467.66
2023-01-19T04:57:01.995Z,97458.88
2023-01-19T04:58:03.225Z,97461.47
2023-01-19T04:59:04.465Z,97466.09
2023-01-19T05:00:06.348Z,97462.41
2023-01-19T05:01:08.344Z,97467.84
2023-01-19T05:02:09.662Z,97465.50
2023-01-19T05:03:10.945Z,97461.56
2023-01-19T05:04:12.203Z,97463.63
2023-01-19T05:05:13.461Z,97459.47
2023-01-19T05:06:14.711Z,97461.28
2023-01-19T05:07:16.002Z,97458.97
2023-01-19T05:08:17.203Z,97460.06
2023-01-19T05:09:18.412Z,97457.72
2023-01-19T05:10:19.644Z,97460.31
2023-01-19T05:11:20.858Z,97464.47
2023-01-19T05:12:22.049Z,97458.50
2023-01-19T05:13:23.578Z,97464.22
2023-01-19T05:14:24.799Z,97464.47
2023-01-19T05:15:26.049Z,97467.31
2023-01-19T05:16:27.310Z,97463.38
2023-01-19T05:17:28.567Z,97460.00
2023-01-19T05:18:29.821Z,97459.22
2023-01-19T05:19:31.135Z,97461.28
2023-01-19T05:20:32.338Z,97462.06
2023-01-19T05:21:33.625Z,97464.34
2023-01-19T05:22:34.885Z,97466.16
2023-01-19T05:23:36.204Z,97471.31
2023-01-19T05:24:37.416Z,97463.47
2023-01-19T05:25:38.678Z,97461.66
2023-01-19T05:26:39.975Z,97467.88
2023-01-19T05:27:41.214Z,97470.22
2023-01-19T05:28:42.435Z,97463.47
2023-01-19T05:29:43.699Z,97466.84
2023-01-19T05:30:44.952Z,97472.03
2023-01-19T05:31:46.284Z,97471.25
2023-01-19T05:32:47.554Z,97466.53
2023-01-19T05:33:48.789Z,97472.81
2023-01-19T05:34:50.065Z,97472.81
2023-01-19T05:35:51.945Z,97473.28
2023-01-19T05:36:53.195Z,97477.47
2023-01-19T05:37:54.393Z,97476.91
2023-01-19T05:38:56.868Z,97476.44
2023-01-19T05:39:58.317Z,97475.72
2023-01-19T05:40:59.576Z,97478.25
2023-01-19T05:42:00.797Z,97476.44
2023-01-19T05:43:02.351Z,97480.06
2023-01-19T05:44:03.894Z,97478.97
2023-01-19T05:45:05.328Z,97483.06
2023-01-19T05:46:06.555Z,97475.03
2023-01-19T05:47:07.748Z,97483.38
2023-01-19T05:48:10.124Z,97486.75
2023-01-19T05:49:11.973Z,97484.16
2023-01-19T05:50:13.212Z,97484.09
2023-01-19T05:51:14.436Z,97485.09
2023-01-19T05:52:15.628Z,97490.25
2023-01-19T05:53:16.916Z,97494.66
2023-01-19T05:54:18.139Z,97491.84
2023-01-19T05:55:19.958Z,97491.06
2023-01-19T05:56:21.195Z,97494.66
2023-01-19T05:57:22.771Z,97497.56
2023-01-19T05:58:24.012Z,97496.34
2023-01-19T05:59:25.224Z,97499.13
2023-01-19T06:00:26.805Z,97505.34
2023-01-19T06:01:28.211Z,97498.16
2023-01-19T06:02:29.567Z,97499.47
2023-01-19T06:03:31.472Z,97506.22
2023-01-19T06:04:32.700Z,97500.31
2023-01-19T06:05:33.948Z,97505.75
2023-01-19T06:06:35.214Z,97502.13
2023-01-19T06:07:36.490Z,97499.06
2023-01-19T06:08:37.689Z,97504.47
2023-01-19T06:09:38.913Z,97505.50
2023-01-19T06:10:40.112Z,97506.53
2023-01-19T06:11:41.311Z,97502.59
2023-01-19T06:12:42.718Z,97503.63
2023-01-19T06:13:44.113Z,97510.06
2023-01-19T06:14:45.417Z,97508.50
2023-01-19T06:15:46.708Z,97516.03
2023-01-19T06:16:47.979Z,97508.25
2023-01-19T06:17:49.274Z,97520.19
2023-01-19T06:18:50.495Z,97515.34
2023-01-19T06:19:51.798Z,97513.19
2023-01-19T06:20:53.425Z,97511.88
2023-01-19T06:21:54.761Z,97525.06
2023-01-19T06:22:59.279Z,97519.34
2023-01-19T06:24:00.988Z,97512.59
2023-01-19T06:25:02.460Z,97517.28
2023-01-19T06:26:03.770Z,97514.94
2023-01-19T06:27:04.997Z,97513.13
2023-01-19T06:28:06.190Z,97518.56
2023-01-19T06:29:08.540Z,97518.56
2023-01-19T06:30:10.252Z,97522.72
2023-01-19T06:31:11.558Z,97524.78
2023-01-19T06:32:12.828Z,97526.09
2023-01-19T06:33:14.086Z,97527.38
2023-01-19T06:34:15.311Z,97527.13
2023-01-19T06:35:16.521Z,97530.56
2023-01-19T06:36:17.803Z,97529.31
2023-01-19T06:37:19.103Z,97528.06
2023-01-19T06:38:20.474Z,97529.94
2023-01-19T06:39:21.805Z,97530.78
2023-01-19T06:40:23.049Z,97532.91
2023-01-19T06:41:24.348Z,97532.97
2023-01-19T06:42:25.554Z,97538.00
2023-01-19T06:43:26.746Z,97529.75
2023-01-19T06:44:28.002Z,97535.00
2023-01-19T06:45:29.270Z,97529.88
2023-01-19T06:46:30.932Z,97535.91
2023-01-19T06:47:32.239Z,97537.78
2023-01-19T06:48:33.768Z,97535.31
2023-01-19T06:49:35.017Z,97530.69
2023-01-19T06:50:36.277Z,97532.78
2023-01-19T06:51:37.551Z,97536.16
2023-01-19T06:52:38.745Z,97540.09
2023-01-19T06:53:39.947Z,97531.59
2023-01-19T06:54:41.388Z,97531.34
2023-01-19T06:55:43.127Z,97526.69
2023-01-19T06:56:44.453Z,97523.38
2023-01-19T06:57:45.652Z,97516.13
2023-01-19T06:58:47.239Z,97518.22
2023-01-19T06:59:48.478Z,97523.19
2023-01-19T07:00:49.873Z,97524.69
2023-01-19T07:01:51.249Z,97519.50
2023-01-19T07:02:52.852Z,97524.13
2023-01-19T07:03:54.091Z,97519.75
2023-01-19T07:04:55.905Z,97523.38
2023-01-19T07:05:57.202Z,97522.88
2023-01-19T07:07:01.079Z,97527.56
2023-01-19T07:08:02.514Z,97528.03
2023-01-19T07:09:03.775Z,97522.31
2023-01-19T07:10:08.103Z,97526.47
2023-01-19T07:11:22.390Z,97524.09
2023-01-19T07:12:30.135Z,97529.53
2023-01-19T07:13:35.755Z,97523.31
2023-01-19T07:14:37.075Z,97523.56
2023-01-19T07:15:38.332Z,97520.97
2023-01-19T07:16:39.879Z,97522.31
2023-01-19T07:17:41.145Z,97524.09
2023-01-19T07:18:42.373Z,97522.53
2023-01-19T07:19:43.613Z,97525.91
2023-01-19T07:20:44.855Z,97531.41
2023-01-19T07:21:46.048Z,97530.38
2023-01-19T07:22:47.300Z,97523.13
2023-01-19T07:23:49.358Z,97528.09
2023-01-19T07:24:50.583Z,97527.31
2023-01-19T07:25:51.855Z,97528.88
2023-01-19T07:26:53.112Z,97530.44
2023-01-19T07:27:58.108Z,97527.59
2023-01-19T07:28:59.299Z,97526.00
2023-01-19T07:30:00.678Z,97530.19
2023-01-19T07:31:02.033Z,97528.38
2023-01-19T07:32:03.630Z,97527.09
2023-01-19T07:33:04.929Z,97531.25
2023-01-19T07:34:06.182Z,97537.00
2023-01-19T07:35:07.592Z,97534.66
2023-01-19T07:36:09.292Z,97530.00
2023-01-19T07:37:10.627Z,97522.75
2023-01-19T07:38:11.837Z,97526.94
2023-01-19T07:39:13.431Z,97527.94
2023-01-19T07:40:14.824Z,97530.53
2023-01-19T07:41:16.120Z,97531.56
2023-01-19T07:42:17.401Z,97529.22
2023-01-19T07:43:18.674Z,97530.84
2023-01-19T07:44:19.920Z,97535.31
2023-01-19T07:45:21.207Z,97537.13
2023-01-19T07:46:22.495Z,97540.50
2023-01-19T07:47:23.763Z,97542.78
2023-01-19T07:48:25.039Z,97538.09
2023-01-19T07:49:26.296Z,97548.25
2023-01-19T07:50:27.565Z,97543.03
2023-01-19T07:51:28.979Z,97546.69
2023-01-19T07:52:30.254Z,97547.47
2023-01-19T07:53:31.502Z,97556.09
2023-01-19T07:54:32.768Z,97554.53
2023-01-19T07:55:33.966Z,97561.81
2023-01-19T07:56:35.267Z,97557.16
2023-01-19T07:57:36.543Z,97560.56
2023-01-19T07:58:38.104Z,97560.84
2023-01-19T07:59:39.343Z,97562.66
2023-01-19T08:00:40.584Z,97561.63
2023-01-19T08:01:41.985Z,97568.41
2023-01-19T08:02:43.322Z,97559.56
2023-01-19T08:03:44.600Z,97568.94
2023-01-19T08:04:47.605Z,97571.03
2023-01-19T08:05:52.400Z,97562.47
2023-01-19T08:06:54.164Z,97563.72
2023-01-19T08:07:55.911Z,97570.22
2023-01-19T08:08:57.104Z,97570.47
2023-01-19T08:09:58.399Z,97569.69
2023-01-19T08:10:59.760Z,97573.34
2023-01-19T08:12:00.960Z,97575.16
2023-01-19T08:13:02.696Z,97576.72
2023-01-19T08:14:05.779Z,97580.91
2023-01-19T08:15:09.368Z,97571.53
2023-01-19T08:16:10.727Z,97578.31
2023-01-19T08:17:12.770Z,97577.81
2023-01-19T08:18:13.972Z,97579.16
2023-01-19T08:19:15.228Z,97568.25
2023-01-19T08:20:16.532Z,97568.34
2023-01-19T08:21:17.730Z,97572.50
2023-01-19T08:22:18.957Z,97572.25
2023-01-19T08:23:20.256Z,97574.09
2023-01-19T08:24:22.567Z,97584.03
2023-01-19T08:25:23.856Z,97575.97
2023-01-19T08:26:32.240Z,97580.91
2023-01-19T08:27:33.468Z,97577.84
2023-01-19T08:28:34.825Z,97574.97
2023-01-19T08:29:36.358Z,97578.41
2023-01-19T08:30:37.842Z,97583.09
2023-01-19T08:31:39.439Z,97581.25
2023-01-19T08:32:40.832Z,97578.19
2023-01-19T08:33:42.083Z,97572.25
2023-01-19T08:34:43.376Z,97579.59
2023-01-19T08:35:47.082Z,97580.13
2023-01-19T08:36:48.274Z,97579.63
2023-01-19T08:37:49.774Z,97582.53
2023-01-19T08:38:51.096Z,97576.28
2023-01-19T08:39:52.326Z,97581.25
2023-01-19T08:40:53.588Z,97579.72
2023-01-19T08:41:54.788Z,97579.22
2023-01-19T08:42:59.795Z,97586.53
2023-01-19T08:44:01.228Z,97585.53
2023-01-19T08:45:02.525Z,97584.25
2023-01-19T08:46:04.388Z,97586.91
2023-01-19T08:47:05.739Z,97580.94
2023-01-19T08:48:07.016Z,97587.00
2023-01-19T08:49:08.282Z,97582.59
2023-01-19T08:50:09.911Z,97581.59
2023-01-19T08:51:11.876Z,97581.91
2023-01-19T08:52:13.121Z,97580.88
2023-01-19T08:53:14.882Z,97585.84
2023-01-19T08:54:18.252Z,97584.00
2023-01-19T08:55:19.865Z,97580.66
2023-01-19T08:56:21.083Z,97587.97
2023-01-19T08:57:22.297Z,97582.28
2023-01-19T08:58:23.607Z,97584.06
2023-01-19T08:59:27.959Z,97592.69
2023-01-19T09:00:29.745Z,97592.16
2023-01-19T09:01:31.123Z,97590.16
2023-01-19T09:02:32.589Z,97584.19
2023-01-19T09:03:34.690Z,97593.28
2023-01-19T09:04:35.939Z,97589.66
2023-01-19T09:05:37.749Z,97590.19
2023-01-19T09:06:38.935Z,97591.78
2023-01-19T09:07:40.203Z,97596.50
2023-01-19T09:08:41.516Z,97592.56
2023-01-19T09:09:42.763Z,97593.34
2023-01-19T09:10:45.861Z,97594.13
2023-01-19T09:11:47.103Z,97599.63
2023-01-19T09:12:48.310Z,97599.91
2023-01-19T09:13:49.515Z,97599.16
2023-01-19T09:14:50.989Z,97596.53
2023-01-19T09:15:52.398Z,97599.94
2023-01-19T09:16:53.669Z,97603.06
2023-01-19T09:17:54.943Z,97598.38
2023-01-19T09:18:56.180Z,97598.13
2023-01-19T09:19:57.410Z,97599.69
2023-01-19T09:20:58.982Z,97601.25
2023-01-19T09:22:00.188Z,97604.41
2023-01-19T09:23:01.574Z,97603.34
2023-01-19T09:24:02.841Z,97596.06
2023-01-19T09:25:04.200Z,97595.03
2023-01-19T09:26:05.946Z,97600.28
2023-01-19T09:27:07.269Z,97603.41
2023-01-19T09:28:09.488Z,97605.25
2023-01-19T09:29:13.008Z,97598.47
2023-01-19T09:30:14.346Z,97598.97
2023-01-19T09:31:15.664Z,97602.13
2023-01-19T09:32:16.929Z,97600.31
2023-01-19T09:33:18.825Z,97606.84
2023-01-19T09:34:20.184Z,97608.44
2023-01-19T09:35:21.452Z,97611.53
2023-01-19T09:36:22.759Z,97608.69
2023-01-19T09:37:24.059Z,97604.78
2023-01-19T09:38:25.343Z,97604.00
2023-01-19T09:39:26.598Z,97605.59
2023-01-19T09:40:28.254Z,97600.88
2023-01-19T09:41:30.715Z,97606.38
2023-01-19T09:42:34.770Z,97607.69
2023-01-19T09:43:41.273Z,97604.03
2023-01-19T09:44:44.540Z,97604.03
2023-01-19T09:45:49.557Z,97604.84
2023-01-19T09:46:50.889Z,97602.22
2023-01-19T09:47:53.425Z,97611.88
2023-01-19T09:48:55.754Z,97607.97
2023-01-19T09:50:05.088Z,97605.63
2023-01-19T09:51:07.343Z,97601.47
2023-01-19T09:52:10.617Z,97608.25
2023-01-19T09:53:16.605Z,97601.22
2023-01-19T09:54:20.062Z,97606.44
2023-01-19T09:55:24.943Z,97601.50
2023-01-19T09:56:27.184Z,97608.81
2023-01-19T09:57:28.516Z,97602.81
2023-01-19T09:58:29.741Z,97605.44
2023-01-19T09:59:31.889Z,97601.75
2023-01-19T10:00:33.195Z,97603.88
2023-01-19T10:01:43.568Z,97598.09
2023-01-19T10:02:48.489Z,97602.28
2023-01-19T10:03:54.107Z,97598.38
2023-01-19T10:05:24.964Z,97598.38
2023-01-19T10:06:26.728Z,97598.09
2023-01-19T10:07:31.014Z,97589.50
2023-01-19T10:08:46.875Z,97600.19
2023-01-19T10:09:48.120Z,97602.53
2023-01-19T10:10:52.811Z,97593.91
2023-01-19T10:11:57.910Z,97604.91
2023-01-19T10:13:22.051Z,97592.09
2023-01-19T10:14:33.974Z,97594.97
2023-01-19T10:15:35.167Z,97592.88
2023-01-19T10:16:36.383Z,97592.88
2023-01-19T10:17:53.171Z,97593.13
2023-01-19T10:18:57.537Z,97583.72
2023-01-19T10:20:01.412Z,97587.66
2023-01-19T10:21:10.441Z,97581.38
2023-01-19T10:22:20.344Z,97583.69
2023-01-19T10:23:30.513Z,97583.97
2023-01-19T10:24:36.101Z,97578.22
2023-01-19T10:25:37.342Z,97578.72
2023-01-19T10:26:42.388Z,97580.03
2023-01-19T10:27:44.071Z,97581.59
2023-01-19T10:28:46.824Z,97579.00
2023-01-19T10:29:48.099Z,97586.31
2023-01-19T10:30:50.524Z,97589.47
2023-01-19T10:31:52.702Z,97590.25
2023-01-19T10:32:54.077Z,97595.22
2023-01-19T10:33:55.481Z,97590.25
2023-01-19T10:34:57.969Z,97595.19
2023-01-19T10:35:59.182Z,97594.16
2023-01-19T10:37:04.146Z,97597.53
2023-01-19T10:38:05.523Z,97597.28
2023-01-19T10:39:07.919Z,97593.59
2023-01-19T10:40:09.224Z,97599.06
2023-01-19T10:41:23.530Z,97596.97
2023-01-19T10:42:28.685Z,97592.53
2023-01-19T10:43:45.761Z,97585.47
2023-01-19T10:44:47.240Z,97592.25
2023-01-19T10:45:50.129Z,97602.41
2023-01-19T10:46:52.632Z,97591.69
2023-01-19T10:47:55.202Z,97588.28
2023-01-19T10:48:56.467Z,97591.44
2023-01-19T10:49:57.858Z,97592.19
2023-01-19T10:51:03.631Z,97590.91
2023-01-19T10:52:06.051Z,97595.06
2023-01-19T10:53:17.888Z,97593.50
2023-01-19T10:54:19.846Z,97590.88
2023-01-19T10:55:25.672Z,97596.09
2023-01-19T10:56:29.404Z,97594.03
2023-01-19T10:57:32.382Z,97602.38
2023-01-19T10:58:34.854Z,97593.25
2023-01-19T10:59:56.353Z,97602.09
2023-01-19T11:01:12.328Z,97597.94
2023-01-19T11:02:27.352Z,97594.25
2023-01-19T11:03:29.786Z,97592.69
2023-01-19T11:04:30.985Z,97595.03
2023-01-19T11:05:33.324Z,97601.84
2023-01-19T11:06:34.612Z,97600.78
2023-01-19T11:07:35.961Z,97596.84
2023-01-19T11:08:37.217Z,97595.28
2023-01-19T11:09:38.515Z,97591.59
2023-01-19T11:10:39.799Z,97597.63
2023-01-19T11:11:42.766Z,97602.88
2023-01-19T11:12:47.443Z,97597.38
2023-01-19T11:14:24.078Z,97598.16
2023-01-19T11:15:29.218Z,97596.59
2023-01-19T11:16:31.868Z,97594.22
2023-01-19T11:17:33.328Z,97584.03
2023-01-19T11:18:36.653Z,97587.72
2023-01-19T11:19:37.919Z,97590.31
2023-01-19T11:20:41.740Z,97588.19
2023-01-19T11:21:43.060Z,97580.34
2023-01-19T11:22:44.463Z,97585.56
2023-01-19T11:23:50.390Z,97580.28
2023-01-19T11:24:51.723Z,97588.69
2023-01-19T11:25:54.211Z,97586.59
2023-01-19T11:26:56.676Z,97578.50
2023-01-19T11:27:58.040Z,97581.09
2023-01-19T11:29:01.088Z,97577.97
2023-01-19T11:30:06.090Z,97581.09
2023-01-19T11:31:10.209Z,97576.13
2023-01-19T11:32:19.226Z,97578.75
2023-01-19T11:33:24.752Z,97572.97
2023-01-19T11:34:30.688Z,97570.88
2023-01-19T11:35:35.178Z,97571.91
2023-01-19T11:36:36.488Z,97573.41
2023-01-19T11:37:37.708Z,97570.78
2023-01-19T11:38:43.376Z,97571.81
2023-01-19T11:39:46.161Z,97576.75
2023-01-19T11:40:51.601Z,97570.16
2023-01-19T11:41:54.976Z,97572.00
2023-01-19T11:42:57.608Z,97568.63
2023-01-19T11:44:19.115Z,97570.72
2023-01-19T11:45:20.536Z,97568.13
2023-01-19T11:46:23.719Z,97571.81
2023-01-19T11:47:27.160Z,97567.38
2023-01-19T11:48:42.144Z,97569.22
2023-01-19T11:49:43.368Z,97572.66
2023-01-19T11:50:45.297Z,97565.88
2023-01-19T11:51:50.847Z,97576.34
2023-01-19T11:52:57.567Z,97574.50
2023-01-19T11:53:59.240Z,97568.53
2023-01-19T11:55:07.053Z,97568.81
2023-01-19T11:56:10.443Z,97562.78
2023-01-19T11:57:16.237Z,97565.13
2023-01-19T11:58:18.357Z,97570.91
2023-01-19T11:59:21.620Z,97565.69
2023-01-19T12:00:34.739Z,97567.03
2023-01-19T12:01:40.561Z,97569.66
2023-01-19T12:02:43.527Z,97569.69
2023-01-19T12:03:56.800Z,97569.44
2023-01-19T12:05:00.869Z,97575.97
2023-01-19T12:06:07.425Z,97577.81
2023-01-19T12:07:11.448Z,97573.69
2023-01-19T12:08:16.332Z,97577.38
2023-01-19T12:09:26.300Z,97577.38
2023-01-19T12:10:33.445Z,97580.25
2023-01-19T12:11:37.334Z,97578.69
2023-01-19T12:12:39.585Z,97580.00
2023-01-19T12:13:41.054Z,97580.78
2023-01-19T12:14:55.671Z,97577.41
2023-01-19T12:16:00.761Z,97581.81
2023-01-19T12:17:02.953Z,97573.19
2023-01-19T12:18:05.836Z,97580.25